Location Norrisville, MD, US

ob CW6888 252200Z AUTO 04003G09KT FEW080 26/11 A2996 RMK SLPNO 

2017.06.25 2200 UTC
Wind from the NE (42 degrees) at 4.0 MPH (3 KT) gusting to 10.0 MPH (9 KT)
Visibility    Mile(s)
Sky Conditions  partly cloudy
Temperature 78.70 F (26 C)
Dew Point 52.37 F (11 C)
Relative Humidity 40%
Pressure   29.96 in. Hg (1015 hPa)
Rain  0.00 in.
Daily Rain  in.

Station Name  Sola Virtus Observatory
Longitude, Latitude  -76.5447, 39.7025
Elevation 738
Station URL http://sola-virtus-observatory.org
Software Type VWS V15.00